sensor_id;sensor_type;location;lat;lon;timestamp;temperature;humidity
53880;DHT22;39791;53.184;5.486;2023-03-01T00:02:19;1.40;1.00
53880;DHT22;39791;53.184;5.486;2023-03-01T00:04:45;0.20;99.90
53880;DHT22;39791;53.184;5.486;2023-03-01T00:07:10;0.90;99.90
53880;DHT22;39791;53.184;5.486;2023-03-01T00:09:36;2.30;99.90
53880;DHT22;39791;53.184;5.486;2023-03-01T00:12:03;0.40;1.00
53880;DHT22;39791;53.184;5.486;2023-03-01T00:14:29;2.20;99.90
53880;DHT22;39791;53.184;5.486;2023-03-01T00:16:55;1.10;99.90
53880;DHT22;39791;53.184;5.486;2023-03-01T00:19:20;0.70;99.90
53880;DHT22;39791;53.184;5.486;2023-03-01T00:21:47;1.40;99.90
53880;DHT22;39791;53.184;5.486;2023-03-01T00:24:13;-0.50;99.90
53880;DHT22;39791;53.184;5.486;2023-03-01T00:26:39;-0.10;99.90
53880;DHT22;39791;53.184;5.486;2023-03-01T00:29:04;1.30;1.00
53880;DHT22;39791;53.184;5.486;2023-03-01T00:31:31;2.00;1.00
53880;DHT22;39791;53.184;5.486;2023-03-01T00:34:03;0.60;1.00
53880;DHT22;39791;53.184;5.486;2023-03-01T00:36:31;-0.30;1.00
53880;DHT22;39791;53.184;5.486;2023-03-01T00:38:57;2.20;88.40
53880;DHT22;39791;53.184;5.486;2023-03-01T00:41:24;2.10;55.40
53880;DHT22;39791;53.184;5.486;2023-03-01T00:43:52;-0.60;1.00
53880;DHT22;39791;53.184;5.486;2023-03-01T00:46:20;-0.60;1.00
53880;DHT22;39791;53.184;5.486;2023-03-01T00:48:46;0.80;1.00
53880;DHT22;39791;53.184;5.486;2023-03-01T00:51:16;-0.70;15.10
53880;DHT22;39791;53.184;5.486;2023-03-01T00:53:42;1.00;35.00
53880;DHT22;39791;53.184;5.486;2023-03-01T00:56:10;-0.80;27.90
53880;DHT22;39791;53.184;5.486;2023-03-01T00:58:36;1.80;96.20
53880;DHT22;39791;53.184;5.486;2023-03-01T01:01:14;-0.20;99.90
53880;DHT22;39791;53.184;5.486;2023-03-01T01:03:52;1.60;99.90
53880;DHT22;39791;53.184;5.486;2023-03-01T01:06:24;0.60;99.90
53880;DHT22;39791;53.184;5.486;2023-03-01T01:08:51;1.80;99.90
53880;DHT22;39791;53.184;5.486;2023-03-01T01:11:17;-0.50;99.90
53880;DHT22;39791;53.184;5.486;2023-03-01T01:13:45;-0.60;99.90
53880;DHT22;39791;53.184;5.486;2023-03-01T01:16:11;0.20;99.90
53880;DHT22;39791;53.184;5.486;2023-03-01T01:18:37;1.40;48.70
53880;DHT22;39791;53.184;5.486;2023-03-01T01:21:08;1.30;25.60
53880;DHT22;39791;53.184;5.486;2023-03-01T01:23:34;-0.80;61.50
53880;DHT22;39791;53.184;5.486;2023-03-01T01:26:13;-1.10;99.90
53880;DHT22;39791;53.184;5.486;2023-03-01T01:28:38;-0.30;99.90
53880;DHT22;39791;53.184;5.486;2023-03-01T01:31:04;-0.50;99.90
53880;DHT22;39791;53.184;5.486;2023-03-01T01:33:30;-0.80;99.90
53880;DHT22;39791;53.184;5.486;2023-03-01T01:35:56;1.50;99.90
53880;DHT22;39791;53.184;5.486;2023-03-01T01:38:21;-0.30;99.90
53880;DHT22;39791;53.184;5.486;2023-03-01T01:40:48;1.00;99.90
53880;DHT22;39791;53.184;5.486;2023-03-01T01:43:26;1.40;99.90
53880;DHT22;39791;53.184;5.486;2023-03-01T01:45:56;-0.90;99.90
53880;DHT22;39791;53.184;5.486;2023-03-01T01:48:24;1.30;1.00
53880;DHT22;39791;53.184;5.486;2023-03-01T01:51:07;-1.00;1.00
53880;DHT22;39791;53.184;5.486;2023-03-01T01:53:35;1.00;99.90
53880;DHT22;39791;53.184;5.486;2023-03-01T01:56:03;-0.10;99.90
53880;DHT22;39791;53.184;5.486;2023-03-01T01:58:31;0.60;99.90
53880;DHT22;39791;53.184;5.486;2023-03-01T02:00:57;1.40;1.00
53880;DHT22;39791;53.184;5.486;2023-03-01T02:03:26;-1.30;1.00
53880;DHT22;39791;53.184;5.486;2023-03-01T02:06:03;1.40;1.00
53880;DHT22;39791;53.184;5.486;2023-03-01T02:08:31;-0.10;1.00
53880;DHT22;39791;53.184;5.486;2023-03-01T02:10:59;-0.40;1.00
53880;DHT22;39791;53.184;5.486;2023-03-01T02:13:26;-1.20;1.00
53880;DHT22;39791;53.184;5.486;2023-03-01T02:15:52;0.80;1.00
53880;DHT22;39791;53.184;5.486;2023-03-01T02:18:18;1.30;1.00
53880;DHT22;39791;53.184;5.486;2023-03-01T02:23:33;0.20;1.00
53880;DHT22;39791;53.184;5.486;2023-03-01T02:28:46;-1.40;1.00
53880;DHT22;39791;53.184;5.486;2023-03-01T02:31:18;-1.50;1.00
53880;DHT22;39791;53.184;5.486;2023-03-01T02:34:04;0.90;1.00
53880;DHT22;39791;53.184;5.486;2023-03-01T02:36:36;0.60;99.90
53880;DHT22;39791;53.184;5.486;2023-03-01T02:39:04;-0.60;99.90
53880;DHT22;39791;53.184;5.486;2023-03-01T02:41:35;-1.80;99.90
53880;DHT22;39791;53.184;5.486;2023-03-01T02:44:02;0.70;1.00
53880;DHT22;39791;53.184;5.486;2023-03-01T02:46:28;0.90;1.00
53880;DHT22;39791;53.184;5.486;2023-03-01T02:48:58;-0.80;1.00
53880;DHT22;39791;53.184;5.486;2023-03-01T02:56:30;-1.10;1.00
53880;DHT22;39791;53.184;5.486;2023-03-01T02:58:56;1.00;9.90
53880;DHT22;39791;53.184;5.486;2023-03-01T03:01:26;-1.50;25.00
53880;DHT22;39791;53.184;5.486;2023-03-01T03:04:15;-0.70;92.90
53880;DHT22;39791;53.184;5.486;2023-03-01T03:06:47;-1.10;99.90
53880;DHT22;39791;53.184;5.486;2023-03-01T03:09:15;0.10;99.90
53880;DHT22;39791;53.184;5.486;2023-03-01T03:11:41;0.40;99.90
53880;DHT22;39791;53.184;5.486;2023-03-01T03:14:09;0.30;99.90
53880;DHT22;39791;53.184;5.486;2023-03-01T03:19:07;-0.50;99.90
53880;DHT22;39791;53.184;5.486;2023-03-01T03:21:33;1.40;99.90
53880;DHT22;39791;53.184;5.486;2023-03-01T03:23:59;0.20;99.90
53880;DHT22;39791;53.184;5.486;2023-03-01T03:26:25;1.40;99.90
53880;DHT22;39791;53.184;5.486;2023-03-01T03:28:50;-1.00;99.90
53880;DHT22;39791;53.184;5.486;2023-03-01T03:31:16;1.50;99.90
53880;DHT22;39791;53.184;5.486;2023-03-01T03:33:42;0.70;99.90
53880;DHT22;39791;53.184;5.486;2023-03-01T03:36:07;1.30;99.90
53880;DHT22;39791;53.184;5.486;2023-03-01T03:38:39;0.80;99.90
53880;DHT22;39791;53.184;5.486;2023-03-01T03:41:07;-1.10;99.90
53880;DHT22;39791;53.184;5.486;2023-03-01T03:43:34;-0.80;99.90
53880;DHT22;39791;53.184;5.486;2023-03-01T03:46:01;1.40;99.90
53880;DHT22;39791;53.184;5.486;2023-03-01T03:48:34;1.70;99.90
53880;DHT22;39791;53.184;5.486;2023-03-01T03:51:00;1.70;99.90
53880;DHT22;39791;53.184;5.486;2023-03-01T03:53:28;0.40;99.90
53880;DHT22;39791;53.184;5.486;2023-03-01T03:55:54;1.80;99.90
53880;DHT22;39791;53.184;5.486;2023-03-01T03:58:22;1.80;99.90
53880;DHT22;39791;53.184;5.486;2023-03-01T04:00:51;-0.40;99.90
53880;DHT22;39791;53.184;5.486;2023-03-01T04:03:18;0.50;99.90
53880;DHT22;39791;53.184;5.486;2023-03-01T04:05:44;1.60;99.90
53880;DHT22;39791;53.184;5.486;2023-03-01T04:08:10;-0.10;99.90
53880;DHT22;39791;53.184;5.486;2023-03-01T04:10:41;1.70;99.90
53880;DHT22;39791;53.184;5.486;2023-03-01T04:13:11;-0.30;99.90
53880;DHT22;39791;53.184;5.486;2023-03-01T04:15:38;-0.90;99.90
53880;DHT22;39791;53.184;5.486;2023-03-01T04:18:04;-0.20;99.90
53880;DHT22;39791;53.184;5.486;2023-03-01T04:20:32;-0.60;99.90
53880;DHT22;39791;53.184;5.486;2023-03-01T04:23:26;1.80;99.90
53880;DHT22;39791;53.184;5.486;2023-03-01T04:25:53;1.70;99.90
53880;DHT22;39791;53.184;5.486;2023-03-01T04:28:39;-0.90;99.90
53880;DHT22;39791;53.184;5.486;2023-03-01T04:31:11;1.20;99.90
53880;DHT22;39791;53.184;5.486;2023-03-01T04:33:43;1.50;99.90
53880;DHT22;39791;53.184;5.486;2023-03-01T04:36:09;1.20;99.90
53880;DHT22;39791;53.184;5.486;2023-03-01T04:38:36;1.40;99.90
53880;DHT22;39791;53.184;5.486;2023-03-01T04:41:07;1.50;99.90
53880;DHT22;39791;53.184;5.486;2023-03-01T04:43:33;-0.90;99.90
53880;DHT22;39791;53.184;5.486;2023-03-01T04:46:04;-0.10;99.90
53880;DHT22;39791;53.184;5.486;2023-03-01T04:48:32;-0.10;99.90
53880;DHT22;39791;53.184;5.486;2023-03-01T04:50:59;0.50;99.90
53880;DHT22;39791;53.184;5.486;2023-03-01T04:53:25;-0.70;99.90
53880;DHT22;39791;53.184;5.486;2023-03-01T04:55:51;-0.90;99.90
53880;DHT22;39791;53.184;5.486;2023-03-01T04:58:17;-0.80;99.90
53880;DHT22;39791;53.184;5.486;2023-03-01T05:00:42;2.00;99.90
53880;DHT22;39791;53.184;5.486;2023-03-01T05:03:08;0.00;99.90
53880;DHT22;39791;53.184;5.486;2023-03-01T05:05:36;-0.30;99.90
53880;DHT22;39791;53.184;5.486;2023-03-01T05:08:04;2.10;99.90
53880;DHT22;39791;53.184;5.486;2023-03-01T05:10:32;-0.10;99.90
53880;DHT22;39791;53.184;5.486;2023-03-01T05:12:59;2.00;99.90
53880;DHT22;39791;53.184;5.486;2023-03-01T05:15:28;1.90;99.90
53880;DHT22;39791;53.184;5.486;2023-03-01T05:17:56;-0.80;99.90
53880;DHT22;39791;53.184;5.486;2023-03-01T05:20:25;1.20;99.90
53880;DHT22;39791;53.184;5.486;2023-03-01T05:22:52;0.20;99.90
53880;DHT22;39791;53.184;5.486;2023-03-01T05:25:19;2.10;99.90
53880;DHT22;39791;53.184;5.486;2023-03-01T05:27:46;0.30;99.90
53880;DHT22;39791;53.184;5.486;2023-03-01T05:30:12;1.30;99.90
53880;DHT22;39791;53.184;5.486;2023-03-01T05:32:50;1.90;99.90
53880;DHT22;39791;53.184;5.486;2023-03-01T05:35:21;1.50;99.90
53880;DHT22;39791;53.184;5.486;2023-03-01T05:37:48;1.50;99.90
53880;DHT22;39791;53.184;5.486;2023-03-01T05:40:19;1.60;99.90
53880;DHT22;39791;53.184;5.486;2023-03-01T05:42:53;-1.00;99.90
53880;DHT22;39791;53.184;5.486;2023-03-01T05:45:23;-0.80;99.90
53880;DHT22;39791;53.184;5.486;2023-03-01T05:47:49;1.10;99.90
53880;DHT22;39791;53.184;5.486;2023-03-01T05:50:26;0.10;99.90
53880;DHT22;39791;53.184;5.486;2023-03-01T05:53:07;-0.60;99.90
53880;DHT22;39791;53.184;5.486;2023-03-01T05:55:35;1.10;99.90
53880;DHT22;39791;53.184;5.486;2023-03-01T05:58:02;0.30;99.90
53880;DHT22;39791;53.184;5.486;2023-03-01T06:00:29;0.50;99.90
53880;DHT22;39791;53.184;5.486;2023-03-01T06:02:56;1.80;99.90
53880;DHT22;39791;53.184;5.486;2023-03-01T06:05:23;1.20;99.90
53880;DHT22;39791;53.184;5.486;2023-03-01T06:07:49;1.80;99.90
53880;DHT22;39791;53.184;5.486;2023-03-01T06:10:16;-0.10;99.90
53880;DHT22;39791;53.184;5.486;2023-03-01T06:12:42;-0.30;99.90
53880;DHT22;39791;53.184;5.486;2023-03-01T06:15:10;-0.20;99.90
53880;DHT22;39791;53.184;5.486;2023-03-01T06:17:37;-1.30;99.90
53880;DHT22;39791;53.184;5.486;2023-03-01T06:20:05;1.40;99.90
53880;DHT22;39791;53.184;5.486;2023-03-01T06:22:31;1.30;99.90
53880;DHT22;39791;53.184;5.486;2023-03-01T06:24:56;1.10;99.90
53880;DHT22;39791;53.184;5.486;2023-03-01T06:27:22;1.50;99.90
53880;DHT22;39791;53.184;5.486;2023-03-01T06:29:47;1.40;99.90
53880;DHT22;39791;53.184;5.486;2023-03-01T06:32:14;-1.50;99.90
53880;DHT22;39791;53.184;5.486;2023-03-01T06:34:39;-1.10;99.90
53880;DHT22;39791;53.184;5.486;2023-03-01T06:37:06;-0.20;99.90
53880;DHT22;39791;53.184;5.486;2023-03-01T06:39:32;-0.50;99.90
53880;DHT22;39791;53.184;5.486;2023-03-01T06:41:58;-1.60;99.90
53880;DHT22;39791;53.184;5.486;2023-03-01T06:44:24;1.20;99.90
53880;DHT22;39791;53.184;5.486;2023-03-01T06:46:49;-1.50;99.90
53880;DHT22;39791;53.184;5.486;2023-03-01T06:49:15;1.30;99.90
53880;DHT22;39791;53.184;5.486;2023-03-01T06:51:44;-1.00;99.90
53880;DHT22;39791;53.184;5.486;2023-03-01T06:54:09;-1.10;99.90
53880;DHT22;39791;53.184;5.486;2023-03-01T06:56:35;0.60;99.90
53880;DHT22;39791;53.184;5.486;2023-03-01T06:59:01;-0.10;99.90
53880;DHT22;39791;53.184;5.486;2023-03-01T07:01:28;1.20;99.90
53880;DHT22;39791;53.184;5.486;2023-03-01T07:03:54;-1.20;99.90
53880;DHT22;39791;53.184;5.486;2023-03-01T07:06:19;-1.40;99.90
53880;DHT22;39791;53.184;5.486;2023-03-01T07:08:45;-1.40;99.90
53880;DHT22;39791;53.184;5.486;2023-03-01T07:11:11;0.70;99.90
53880;DHT22;39791;53.184;5.486;2023-03-01T07:13:36;-1.00;99.90
53880;DHT22;39791;53.184;5.486;2023-03-01T07:16:02;1.10;99.90
53880;DHT22;39791;53.184;5.486;2023-03-01T07:18:27;0.70;99.90
53880;DHT22;39791;53.184;5.486;2023-03-01T07:20:53;-1.30;99.90
53880;DHT22;39791;53.184;5.486;2023-03-01T07:23:18;1.30;99.90
53880;DHT22;39791;53.184;5.486;2023-03-01T07:25:44;0.20;99.90
53880;DHT22;39791;53.184;5.486;2023-03-01T07:28:16;-1.20;99.90
53880;DHT22;39791;53.184;5.486;2023-03-01T07:30:41;1.20;99.90
53880;DHT22;39791;53.184;5.486;2023-03-01T07:33:07;-0.60;99.90
53880;DHT22;39791;53.184;5.486;2023-03-01T07:35:33;-0.90;99.90
53880;DHT22;39791;53.184;5.486;2023-03-01T07:37:59;0.60;99.90
53880;DHT22;39791;53.184;5.486;2023-03-01T07:40:24;-0.90;99.90
53880;DHT22;39791;53.184;5.486;2023-03-01T07:42:55;1.30;99.90
53880;DHT22;39791;53.184;5.486;2023-03-01T07:45:20;-0.10;99.90
53880;DHT22;39791;53.184;5.486;2023-03-01T07:47:46;0.00;99.90
53880;DHT22;39791;53.184;5.486;2023-03-01T07:50:12;0.90;99.90
53880;DHT22;39791;53.184;5.486;2023-03-01T07:52:38;2.00;99.90
53880;DHT22;39791;53.184;5.486;2023-03-01T07:55:04;1.30;99.90
53880;DHT22;39791;53.184;5.486;2023-03-01T07:57:30;-0.30;99.90
53880;DHT22;39791;53.184;5.486;2023-03-01T07:59:56;-0.50;99.90
53880;DHT22;39791;53.184;5.486;2023-03-01T08:02:22;1.20;99.90
53880;DHT22;39791;53.184;5.486;2023-03-01T08:04:48;2.40;99.90
53880;DHT22;39791;53.184;5.486;2023-03-01T08:07:13;2.50;99.90
53880;DHT22;39791;53.184;5.486;2023-03-01T08:09:39;2.70;99.90
53880;DHT22;39791;53.184;5.486;2023-03-01T08:12:05;0.30;99.90
53880;DHT22;39791;53.184;5.486;2023-03-01T08:14:32;0.40;99.90
53880;DHT22;39791;53.184;5.486;2023-03-01T08:16:57;0.20;99.90
53880;DHT22;39791;53.184;5.486;2023-03-01T08:19:23;2.70;99.90
53880;DHT22;39791;53.184;5.486;2023-03-01T08:21:49;2.70;99.90
53880;DHT22;39791;53.184;5.486;2023-03-01T08:24:15;2.00;99.90
53880;DHT22;39791;53.184;5.486;2023-03-01T08:26:40;2.40;99.90
53880;DHT22;39791;53.184;5.486;2023-03-01T08:29:06;2.20;99.90
53880;DHT22;39791;53.184;5.486;2023-03-01T08:31:38;1.10;99.90
53880;DHT22;39791;53.184;5.486;2023-03-01T08:34:07;2.40;99.90
53880;DHT22;39791;53.184;5.486;2023-03-01T08:36:39;3.50;99.90
53880;DHT22;39791;53.184;5.486;2023-03-01T08:39:06;2.00;99.90
53880;DHT22;39791;53.184;5.486;2023-03-01T08:41:32;3.80;99.90
53880;DHT22;39791;53.184;5.486;2023-03-01T08:43:58;1.40;99.90
53880;DHT22;39791;53.184;5.486;2023-03-01T08:46:28;3.50;99.90
53880;DHT22;39791;53.184;5.486;2023-03-01T08:48:54;4.60;99.90
53880;DHT22;39791;53.184;5.486;2023-03-01T08:51:21;4.70;99.90
53880;DHT22;39791;53.184;5.486;2023-03-01T08:53:48;4.00;99.90
53880;DHT22;39791;53.184;5.486;2023-03-01T08:56:14;2.40;99.90
53880;DHT22;39791;53.184;5.486;2023-03-01T08:58:44;3.10;99.90
53880;DHT22;39791;53.184;5.486;2023-03-01T09:01:12;3.20;99.90
53880;DHT22;39791;53.184;5.486;2023-03-01T09:03:38;4.80;99.90
53880;DHT22;39791;53.184;5.486;2023-03-01T09:06:04;4.10;99.90
53880;DHT22;39791;53.184;5.486;2023-03-01T09:08:30;4.40;99.90
53880;DHT22;39791;53.184;5.486;2023-03-01T09:10:56;4.90;99.90
53880;DHT22;39791;53.184;5.486;2023-03-01T09:13:22;5.10;99.90
53880;DHT22;39791;53.184;5.486;2023-03-01T09:15:52;7.00;99.90
53880;DHT22;39791;53.184;5.486;2023-03-01T09:18:18;5.40;99.90
53880;DHT22;39791;53.184;5.486;2023-03-01T09:20:43;7.30;99.90
53880;DHT22;39791;53.184;5.486;2023-03-01T09:23:09;5.70;99.90
53880;DHT22;39791;53.184;5.486;2023-03-01T09:25:35;5.90;99.90
53880;DHT22;39791;53.184;5.486;2023-03-01T09:28:00;6.10;99.90
53880;DHT22;39791;53.184;5.486;2023-03-01T09:30:26;6.30;99.90
53880;DHT22;39791;53.184;5.486;2023-03-01T09:32:51;6.80;99.90
53880;DHT22;39791;53.184;5.486;2023-03-01T09:35:17;6.50;99.90
53880;DHT22;39791;53.184;5.486;2023-03-01T09:37:44;6.40;99.90
53880;DHT22;39791;53.184;5.486;2023-03-01T09:40:21;7.90;99.90
53880;DHT22;39791;53.184;5.486;2023-03-01T09:45:35;7.40;99.90
53880;DHT22;39791;53.184;5.486;2023-03-01T09:48:02;7.10;99.90
53880;DHT22;39791;53.184;5.486;2023-03-01T09:50:35;5.70;99.90
53880;DHT22;39791;53.184;5.486;2023-03-01T09:53:05;6.20;99.90
53880;DHT22;39791;53.184;5.486;2023-03-01T09:55:54;6.60;99.90
53880;DHT22;39791;53.184;5.486;2023-03-01T09:58:29;6.50;99.90
53880;DHT22;39791;53.184;5.486;2023-03-01T10:00:59;6.10;99.90
53880;DHT22;39791;53.184;5.486;2023-03-01T10:03:33;7.50;99.90
53880;DHT22;39791;53.184;5.486;2023-03-01T10:06:12;6.60;99.90
53880;DHT22;39791;53.184;5.486;2023-03-01T10:09:02;8.00;99.90
53880;DHT22;39791;53.184;5.486;2023-03-01T10:11:38;7.10;99.90
53880;DHT22;39791;53.184;5.486;2023-03-01T10:14:38;6.90;99.90
53880;DHT22;39791;53.184;5.486;2023-03-01T10:22:22;8.20;99.90
53880;DHT22;39791;53.184;5.486;2023-03-01T10:24:51;8.50;99.90
53880;DHT22;39791;53.184;5.486;2023-03-01T10:30:18;7.60;1.00
53880;DHT22;39791;53.184;5.486;2023-03-01T10:32:46;7.60;1.00
53880;DHT22;39791;53.184;5.486;2023-03-01T10:35:26;7.50;51.20
53880;DHT22;39791;53.184;5.486;2023-03-01T10:38:10;7.80;99.90
53880;DHT22;39791;53.184;5.486;2023-03-01T10:41:05;7.90;1.00
53880;DHT22;39791;53.184;5.486;2023-03-01T10:43:49;8.30;99.90
53880;DHT22;39791;53.184;5.486;2023-03-01T10:46:36;8.80;1.00
53880;DHT22;39791;53.184;5.486;2023-03-01T10:51:33;7.80;1.00
53880;DHT22;39791;53.184;5.486;2023-03-01T10:53:58;8.40;99.90
53880;DHT22;39791;53.184;5.486;2023-03-01T10:56:24;8.50;99.90
53880;DHT22;39791;53.184;5.486;2023-03-01T10:59:04;8.60;62.70
53880;DHT22;39791;53.184;5.486;2023-03-01T11:01:32;7.80;1.00
53880;DHT22;39791;53.184;5.486;2023-03-01T11:06:32;9.30;99.90
53880;DHT22;39791;53.184;5.486;2023-03-01T11:09:17;8.80;99.90
53880;DHT22;39791;53.184;5.486;2023-03-01T11:11:44;9.10;99.90
53880;DHT22;39791;53.184;5.486;2023-03-01T11:14:27;8.80;99.90
53880;DHT22;39791;53.184;5.486;2023-03-01T11:17:01;9.40;60.30
53880;DHT22;39791;53.184;5.486;2023-03-01T11:19:27;8.70;1.00
53880;DHT22;39791;53.184;5.486;2023-03-01T11:22:12;9.10;1.00
53880;DHT22;39791;53.184;5.486;2023-03-01T11:24:45;8.40;1.00
53880;DHT22;39791;53.184;5.486;2023-03-01T11:27:32;8.60;99.90
53880;DHT22;39791;53.184;5.486;2023-03-01T11:30:24;8.60;99.90
53880;DHT22;39791;53.184;5.486;2023-03-01T11:33:05;8.50;99.90
53880;DHT22;39791;53.184;5.486;2023-03-01T11:35:57;8.00;99.90
53880;DHT22;39791;53.184;5.486;2023-03-01T11:38:28;7.90;99.90
53880;DHT22;39791;53.184;5.486;2023-03-01T11:43:47;9.40;99.90
53880;DHT22;39791;53.184;5.486;2023-03-01T12:03:28;8.80;99.90
53880;DHT22;39791;53.184;5.486;2023-03-01T12:09:31;8.60;99.70
53880;DHT22;39791;53.184;5.486;2023-03-01T12:12:32;8.50;77.40
53880;DHT22;39791;53.184;5.486;2023-03-01T12:18:29;8.30;44.40
53880;DHT22;39791;53.184;5.486;2023-03-01T12:21:09;8.30;40.30
53880;DHT22;39791;53.184;5.486;2023-03-01T12:26:26;8.60;33.50
53880;DHT22;39791;53.184;5.486;2023-03-01T12:29:18;9.50;25.00
53880;DHT22;39791;53.184;5.486;2023-03-01T12:37:22;8.60;9.50
53880;DHT22;39791;53.184;5.486;2023-03-01T12:51:07;8.60;1.00
53880;DHT22;39791;53.184;5.486;2023-03-01T12:53:43;8.70;1.00
53880;DHT22;39791;53.184;5.486;2023-03-01T12:56:13;8.70;1.00
53880;DHT22;39791;53.184;5.486;2023-03-01T12:58:49;8.70;1.00
53880;DHT22;39791;53.184;5.486;2023-03-01T13:04:45;8.80;1.00
53880;DHT22;39791;53.184;5.486;2023-03-01T13:13:00;8.70;1.00
53880;DHT22;39791;53.184;5.486;2023-03-01T13:15:35;8.70;1.00
53880;DHT22;39791;53.184;5.486;2023-03-01T13:20:33;8.90;1.00
53880;DHT22;39791;53.184;5.486;2023-03-01T13:23:05;9.00;1.00
53880;DHT22;39791;53.184;5.486;2023-03-01T13:25:32;8.90;1.00
53880;DHT22;39791;53.184;5.486;2023-03-01T13:39:39;8.90;1.00
53880;DHT22;39791;53.184;5.486;2023-03-01T13:42:35;8.90;1.00
53880;DHT22;39791;53.184;5.486;2023-03-01T13:45:14;9.00;1.00
53880;DHT22;39791;53.184;5.486;2023-03-01T13:47:41;9.00;1.00
53880;DHT22;39791;53.184;5.486;2023-03-01T13:50:18;9.10;1.00
53880;DHT22;39791;53.184;5.486;2023-03-01T13:53:00;9.10;1.00
53880;DHT22;39791;53.184;5.486;2023-03-01T13:55:40;9.00;1.00
53880;DHT22;39791;53.184;5.486;2023-03-01T13:58:22;9.10;1.00
53880;DHT22;39791;53.184;5.486;2023-03-01T14:00:59;9.30;1.00
53880;DHT22;39791;53.184;5.486;2023-03-01T14:03:25;9.10;1.00
53880;DHT22;39791;53.184;5.486;2023-03-01T14:08:26;9.20;1.00
53880;DHT22;39791;53.184;5.486;2023-03-01T14:22:18;9.20;1.00
53880;DHT22;39791;53.184;5.486;2023-03-01T14:24:55;9.20;1.00
53880;DHT22;39791;53.184;5.486;2023-03-01T14:27:23;9.30;1.00
53880;DHT22;39791;53.184;5.486;2023-03-01T14:29:58;9.20;1.00
53880;DHT22;39791;53.184;5.486;2023-03-01T14:32:27;9.70;1.00
53880;DHT22;39791;53.184;5.486;2023-03-01T14:34:53;9.20;1.00
53880;DHT22;39791;53.184;5.486;2023-03-01T14:37:29;9.10;1.00
53880;DHT22;39791;53.184;5.486;2023-03-01T14:39:57;9.10;1.00
53880;DHT22;39791;53.184;5.486;2023-03-01T14:42:25;9.10;1.00
53880;DHT22;39791;53.184;5.486;2023-03-01T14:44:54;9.10;1.00
53880;DHT22;39791;53.184;5.486;2023-03-01T14:47:33;9.10;1.00
53880;DHT22;39791;53.184;5.486;2023-03-01T14:50:15;9.00;1.00
53880;DHT22;39791;53.184;5.486;2023-03-01T14:52:47;9.00;1.00
53880;DHT22;39791;53.184;5.486;2023-03-01T14:55:19;9.00;1.00
53880;DHT22;39791;53.184;5.486;2023-03-01T14:57:48;8.90;1.00
53880;DHT22;39791;53.184;5.486;2023-03-01T15:00:23;9.00;1.00
53880;DHT22;39791;53.184;5.486;2023-03-01T15:02:52;9.00;1.00
53880;DHT22;39791;53.184;5.486;2023-03-01T15:05:24;9.00;1.00
53880;DHT22;39791;53.184;5.486;2023-03-01T15:07:51;9.00;1.00
53880;DHT22;39791;53.184;5.486;2023-03-01T15:10:28;9.00;1.00
53880;DHT22;39791;53.184;5.486;2023-03-01T15:12:54;9.00;1.00
53880;DHT22;39791;53.184;5.486;2023-03-01T15:15:33;9.00;1.00
53880;DHT22;39791;53.184;5.486;2023-03-01T15:18:03;9.00;1.00
53880;DHT22;39791;53.184;5.486;2023-03-01T15:20:30;8.90;1.00
53880;DHT22;39791;53.184;5.486;2023-03-01T15:23:01;8.90;1.00
53880;DHT22;39791;53.184;5.486;2023-03-01T15:25:28;8.90;1.00
53880;DHT22;39791;53.184;5.486;2023-03-01T15:27:56;8.90;1.00
53880;DHT22;39791;53.184;5.486;2023-03-01T15:30:30;8.90;1.00
53880;DHT22;39791;53.184;5.486;2023-03-01T15:35:49;8.80;1.00
53880;DHT22;39791;53.184;5.486;2023-03-01T15:38:50;8.80;1.00
53880;DHT22;39791;53.184;5.486;2023-03-01T15:41:25;8.80;1.00
53880;DHT22;39791;53.184;5.486;2023-03-01T15:43:52;8.70;1.00
53880;DHT22;39791;53.184;5.486;2023-03-01T15:46:32;8.70;1.00
53880;DHT22;39791;53.184;5.486;2023-03-01T15:49:01;8.70;1.00
53880;DHT22;39791;53.184;5.486;2023-03-01T15:51:36;8.70;1.00
53880;DHT22;39791;53.184;5.486;2023-03-01T15:54:16;8.60;1.00
53880;DHT22;39791;53.184;5.486;2023-03-01T15:56:43;8.60;1.00
53880;DHT22;39791;53.184;5.486;2023-03-01T15:59:10;8.80;1.00
53880;DHT22;39791;53.184;5.486;2023-03-01T16:01:38;8.60;1.00
53880;DHT22;39791;53.184;5.486;2023-03-01T16:04:04;8.50;1.00
53880;DHT22;39791;53.184;5.486;2023-03-01T16:06:29;8.50;1.00
53880;DHT22;39791;53.184;5.486;2023-03-01T16:08:55;8.50;1.00
53880;DHT22;39791;53.184;5.486;2023-03-01T16:11:21;8.50;1.00
53880;DHT22;39791;53.184;5.486;2023-03-01T16:13:47;8.40;1.00
53880;DHT22;39791;53.184;5.486;2023-03-01T16:16:14;8.30;1.00
53880;DHT22;39791;53.184;5.486;2023-03-01T16:18:46;8.30;1.00
53880;DHT22;39791;53.184;5.486;2023-03-01T16:21:19;8.30;1.00
53880;DHT22;39791;53.184;5.486;2023-03-01T16:23:45;8.20;1.00
53880;DHT22;39791;53.184;5.486;2023-03-01T16:26:12;8.20;1.00
53880;DHT22;39791;53.184;5.486;2023-03-01T16:28:39;8.00;1.00
53880;DHT22;39791;53.184;5.486;2023-03-01T16:31:05;8.00;1.00
53880;DHT22;39791;53.184;5.486;2023-03-01T16:33:31;7.90;1.00
53880;DHT22;39791;53.184;5.486;2023-03-01T16:36:00;7.90;1.00
53880;DHT22;39791;53.184;5.486;2023-03-01T16:38:27;7.90;1.00
53880;DHT22;39791;53.184;5.486;2023-03-01T16:40:53;8.10;1.00
53880;DHT22;39791;53.184;5.486;2023-03-01T16:43:19;7.60;1.00
53880;DHT22;39791;53.184;5.486;2023-03-01T16:45:44;7.50;1.00
53880;DHT22;39791;53.184;5.486;2023-03-01T16:48:11;7.50;1.00
53880;DHT22;39791;53.184;5.486;2023-03-01T16:50:37;7.40;1.00
53880;DHT22;39791;53.184;5.486;2023-03-01T16:53:03;7.30;1.00
53880;DHT22;39791;53.184;5.486;2023-03-01T16:55:28;7.30;1.00
53880;DHT22;39791;53.184;5.486;2023-03-01T16:57:54;7.30;1.00
53880;DHT22;39791;53.184;5.486;2023-03-01T17:00:20;7.20;1.00
53880;DHT22;39791;53.184;5.486;2023-03-01T17:02:46;7.10;1.00
53880;DHT22;39791;53.184;5.486;2023-03-01T17:05:12;7.20;1.00
53880;DHT22;39791;53.184;5.486;2023-03-01T17:07:37;7.00;1.00
53880;DHT22;39791;53.184;5.486;2023-03-01T17:10:05;7.00;1.00
53880;DHT22;39791;53.184;5.486;2023-03-01T17:12:30;6.90;5.30
53880;DHT22;39791;53.184;5.486;2023-03-01T17:14:57;7.10;21.10
53880;DHT22;39791;53.184;5.486;2023-03-01T17:17:22;7.10;44.50
53880;DHT22;39791;53.184;5.486;2023-03-01T17:19:48;8.20;68.10
53880;DHT22;39791;53.184;5.486;2023-03-01T17:22:14;6.60;91.60
53880;DHT22;39791;53.184;5.486;2023-03-01T17:24:40;6.60;99.90
53880;DHT22;39791;53.184;5.486;2023-03-01T17:27:07;7.00;99.90
53880;DHT22;39791;53.184;5.486;2023-03-01T17:29:33;6.70;99.90
53880;DHT22;39791;53.184;5.486;2023-03-01T17:31:59;6.30;99.90
53880;DHT22;39791;53.184;5.486;2023-03-01T17:34:25;7.00;99.90
53880;DHT22;39791;53.184;5.486;2023-03-01T17:36:51;6.10;99.90
53880;DHT22;39791;53.184;5.486;2023-03-01T17:39:18;6.80;99.90
53880;DHT22;39791;53.184;5.486;2023-03-01T17:41:53;6.10;99.90
53880;DHT22;39791;53.184;5.486;2023-03-01T17:44:18;6.70;99.90
53880;DHT22;39791;53.184;5.486;2023-03-01T17:46:44;6.20;99.90
53880;DHT22;39791;53.184;5.486;2023-03-01T17:49:10;5.90;99.90
53880;DHT22;39791;53.184;5.486;2023-03-01T17:51:36;6.70;99.90
53880;DHT22;39791;53.184;5.486;2023-03-01T17:54:02;6.50;99.90
53880;DHT22;39791;53.184;5.486;2023-03-01T17:56:27;6.50;99.90
53880;DHT22;39791;53.184;5.486;2023-03-01T17:58:54;6.70;1.00